createdAt,value
2017-10-26T00:02:04.819Z,33.63
2017-10-26T00:05:07.034Z,32.73
2017-10-26T00:08:08.987Z,29.57
2017-10-26T00:11:11.798Z,25.40
2017-10-26T00:14:14.488Z,36.67
2017-10-26T00:17:16.410Z,31.93
2017-10-26T00:20:18.859Z,30.07
2017-10-26T00:23:20.872Z,29.47
2017-10-26T00:26:23.641Z,36.17
2017-10-26T00:29:25.562Z,29.50
2017-10-26T00:32:27.481Z,21.57
2017-10-26T00:35:29.521Z,35.13
2017-10-26T00:38:32.607Z,44.90
2017-10-26T00:41:34.523Z,26.47
2017-10-26T00:44:36.444Z,36.13
2017-10-26T00:47:38.431Z,40.20
2017-10-26T00:50:40.375Z,36.00
2017-10-26T00:53:42.309Z,35.53
2017-10-26T00:56:44.896Z,35.60
2017-10-26T00:59:46.823Z,33.43
2017-10-26T01:02:48.751Z,37.73
2017-10-26T01:05:50.647Z,37.30
2017-10-26T01:08:52.920Z,45.60
2017-10-26T01:11:55.178Z,38.10
2017-10-26T01:14:57.121Z,39.20
2017-10-26T01:17:59.074Z,42.70
2017-10-26T01:21:01.027Z,45.37
2017-10-26T01:24:02.950Z,46.20
2017-10-26T01:27:04.884Z,42.23
2017-10-26T01:30:06.799Z,49.03
2017-10-26T01:33:09.076Z,43.47
2017-10-26T01:36:10.982Z,41.70
2017-10-26T01:39:13.257Z,39.27
2017-10-26T01:42:15.158Z,49.93
2017-10-26T01:45:17.434Z,56.10
2017-10-26T01:48:19.390Z,44.63
2017-10-26T01:51:21.743Z,48.97
2017-10-26T01:54:24.445Z,42.93
2017-10-26T01:57:27.537Z,49.97
2017-10-26T02:00:29.526Z,51.13
2017-10-26T02:03:31.465Z,51.90
2017-10-26T02:06:33.424Z,55.27
2017-10-26T02:09:35.806Z,44.93
2017-10-26T02:12:38.468Z,40.33
2017-10-26T02:15:40.753Z,42.33
2017-10-26T02:18:42.674Z,43.33
2017-10-26T02:21:45.375Z,42.67
2017-10-26T02:24:48.089Z,48.83
2017-10-26T02:27:50.121Z,50.77
2017-10-26T02:31:04.088Z,56.23
2017-10-26T02:34:06.403Z,52.37
2017-10-26T02:37:09.172Z,40.90
2017-10-26T02:40:11.095Z,48.43
2017-10-26T02:43:13.768Z,49.10
2017-10-26T02:46:16.090Z,46.87
2017-10-26T02:49:18.750Z,60.10
2017-10-26T02:52:21.029Z,48.80
2017-10-26T02:55:23.034Z,48.97
2017-10-26T02:58:24.969Z,52.33
2017-10-26T03:01:26.885Z,44.83
2017-10-26T03:04:28.830Z,47.73
2017-10-26T03:07:30.765Z,46.93
2017-10-26T03:10:32.735Z,53.17
2017-10-26T03:13:34.657Z,50.90
2017-10-26T03:16:37.715Z,59.40
2017-10-26T03:19:39.805Z,54.40
2017-10-26T03:22:41.740Z,68.73
2017-10-26T03:25:43.693Z,68.23
2017-10-26T03:28:45.957Z,56.33
2017-10-26T03:31:47.874Z,57.87
2017-10-26T03:34:50.586Z,58.83
2017-10-26T03:37:53.265Z,58.67
2017-10-26T03:40:55.209Z,58.67
2017-10-26T03:43:57.228Z,63.87
2017-10-26T03:46:59.496Z,77.47
2017-10-26T03:50:01.500Z,79.03
2017-10-26T03:53:05.523Z,64.33
2017-10-26T03:56:07.413Z,62.63
2017-10-26T03:59:09.681Z,64.77
2017-10-26T04:02:11.698Z,71.20
2017-10-26T04:05:14.794Z,74.30
2017-10-26T04:08:16.713Z,69.73
2017-10-26T04:11:19.079Z,72.43
2017-10-26T04:14:21.862Z,65.47
2017-10-26T04:17:24.145Z,63.07
2017-10-26T04:20:26.158Z,58.93
2017-10-26T04:23:28.868Z,61.80
2017-10-26T04:26:31.630Z,57.50
2017-10-26T04:29:33.624Z,59.80
2017-10-26T04:32:35.550Z,57.07
2017-10-26T04:35:37.740Z,50.37
2017-10-26T04:38:39.631Z,55.77
2017-10-26T04:41:41.950Z,65.40
2017-10-26T04:44:44.040Z,54.73
2017-10-26T04:47:46.017Z,55.67
2017-10-26T04:50:48.059Z,50.63
2017-10-26T04:53:50.397Z,49.37
2017-10-26T04:56:52.297Z,51.77
2017-10-26T04:59:54.676Z,52.93
2017-10-26T05:02:56.627Z,48.10
2017-10-26T05:05:58.545Z,50.47
2017-10-26T05:09:00.447Z,41.33
2017-10-26T05:12:03.521Z,46.10
2017-10-26T05:15:05.534Z,45.20
2017-10-26T05:18:07.522Z,51.07
2017-10-26T05:21:09.471Z,44.47
2017-10-26T05:24:11.790Z,47.37
2017-10-26T05:27:14.096Z,46.73
2017-10-26T05:30:16.854Z,43.67
2017-10-26T05:33:18.779Z,47.03
2017-10-26T05:36:21.861Z,49.63
2017-10-26T05:39:23.765Z,48.43
2017-10-26T05:42:26.450Z,51.17
2017-10-26T05:45:28.362Z,53.83
2017-10-26T05:48:30.376Z,63.00
2017-10-26T05:51:32.298Z,64.90
2017-10-26T05:54:34.666Z,73.93
2017-10-26T05:57:36.600Z,74.00
2017-10-26T06:00:39.141Z,70.60
2017-10-26T06:03:41.131Z,88.33
2017-10-26T06:06:43.851Z,93.37
2017-10-26T06:09:47.369Z,109.00
2017-10-26T06:12:49.294Z,105.90
2017-10-26T06:15:51.211Z,124.10
2017-10-26T06:18:53.194Z,126.30
2017-10-26T06:21:55.289Z,132.80
2017-10-26T06:24:57.255Z,137.63
2017-10-26T06:27:59.184Z,139.80
2017-10-26T06:31:02.078Z,196.87
2017-10-26T06:34:04.976Z,170.43
2017-10-26T06:37:07.988Z,222.40
2017-10-26T06:40:10.653Z,244.97
2017-10-26T06:43:12.960Z,266.00
2017-10-26T06:46:14.952Z,256.83
2017-10-26T06:49:17.044Z,254.30
2017-10-26T06:52:19.050Z,258.73
2017-10-26T06:55:21.080Z,267.23
2017-10-26T06:58:23.075Z,253.67
2017-10-26T07:01:25.379Z,253.37
2017-10-26T07:04:27.341Z,233.97
2017-10-26T07:07:29.662Z,229.60
2017-10-26T07:10:31.646Z,257.43
2017-10-26T07:13:33.910Z,230.93
2017-10-26T07:16:35.806Z,238.87
2017-10-26T07:19:37.805Z,222.43
2017-10-26T07:22:39.757Z,237.33
2017-10-26T07:25:41.766Z,215.20
2017-10-26T07:28:43.666Z,202.77
2017-10-26T07:31:47.457Z,208.20
2017-10-26T07:34:49.406Z,188.03
2017-10-26T07:37:51.447Z,202.33
2017-10-26T07:40:53.353Z,177.10
2017-10-26T07:43:56.440Z,186.00
2017-10-26T07:46:58.379Z,172.73
2017-10-26T07:50:00.398Z,168.60
2017-10-26T07:53:02.314Z,160.87
2017-10-26T07:56:04.566Z,170.63
2017-10-26T07:59:06.473Z,155.00
2017-10-26T08:02:09.237Z,166.20
2017-10-26T08:05:11.306Z,145.97
2017-10-26T08:08:14.636Z,158.05
2017-10-26T08:11:16.650Z,149.57
2017-10-26T08:14:20.421Z,153.35
2017-10-26T08:17:22.663Z,136.10
2017-10-26T08:20:25.738Z,155.70
2017-10-26T08:23:27.672Z,145.07
2017-10-26T08:26:30.008Z,133.15
2017-10-26T08:29:31.992Z,120.85
2017-10-26T08:32:34.138Z,120.20
2017-10-26T08:35:36.078Z,138.62
2017-10-26T08:38:39.208Z,119.10
2017-10-26T08:41:42.213Z,125.57
2017-10-26T08:44:45.420Z,113.18
2017-10-26T08:47:47.354Z,109.72
2017-10-26T08:50:49.296Z,109.55
2017-10-26T08:53:51.961Z,95.68
2017-10-26T08:56:54.865Z,94.93
2017-10-26T08:59:56.789Z,105.45
2017-10-26T09:02:59.869Z,97.25
2017-10-26T09:06:01.789Z,92.22
2017-10-26T09:09:04.051Z,102.75
2017-10-26T09:12:05.967Z,107.50
2017-10-26T09:15:08.299Z,104.73
2017-10-26T09:18:10.428Z,96.22
2017-10-26T09:21:13.444Z,97.35
2017-10-26T09:24:16.330Z,91.20
2017-10-26T09:27:19.023Z,88.68
2017-10-26T09:30:20.923Z,89.57
2017-10-26T09:33:23.633Z,85.62
2017-10-26T09:36:25.563Z,85.35
2017-10-26T09:39:27.736Z,83.12
2017-10-26T09:42:29.636Z,78.80
2017-10-26T09:45:31.591Z,85.90
2017-10-26T09:48:33.546Z,87.05
2017-10-26T09:51:35.677Z,70.85
2017-10-26T09:54:37.610Z,77.20
2017-10-26T09:57:40.299Z,71.57
2017-10-26T10:00:43.074Z,65.62
2017-10-26T10:03:44.993Z,59.45
2017-10-26T10:06:47.678Z,54.75
2017-10-26T10:09:50.385Z,54.22
2017-10-26T10:12:53.062Z,57.30
2017-10-26T10:15:54.988Z,48.95
2017-10-26T10:18:56.925Z,44.72
2017-10-26T10:21:59.582Z,35.60
2017-10-26T10:25:01.490Z,36.22
2017-10-26T10:28:03.441Z,37.13
2017-10-26T10:31:05.369Z,32.50
2017-10-26T10:34:07.294Z,31.75
2017-10-26T10:37:09.454Z,31.48
2017-10-26T10:40:11.707Z,27.65
2017-10-26T10:43:13.851Z,29.08
2017-10-26T10:46:15.968Z,27.45
2017-10-26T10:49:17.913Z,27.85
2017-10-26T10:52:20.602Z,28.70
2017-10-26T10:55:23.269Z,29.48
2017-10-26T10:58:25.209Z,29.42
2017-10-26T11:01:27.176Z,32.13
2017-10-26T11:04:30.238Z,30.62
2017-10-26T11:07:32.138Z,28.45
2017-10-26T11:10:34.057Z,27.45
2017-10-26T11:13:35.961Z,26.30
2017-10-26T11:16:37.885Z,28.65
2017-10-26T11:19:39.790Z,29.23
2017-10-26T11:22:42.499Z,32.75
2017-10-26T11:25:44.401Z,30.67
2017-10-26T11:28:46.317Z,27.92
2017-10-26T11:31:49.078Z,33.47
2017-10-26T11:34:51.125Z,32.83
2017-10-26T11:37:53.809Z,28.70
2017-10-26T11:40:55.733Z,32.70
2017-10-26T11:43:57.658Z,29.45
2017-10-26T11:47:00.338Z,35.22
2017-10-26T11:50:02.282Z,30.85
2017-10-26T11:53:05.318Z,26.95
2017-10-26T11:56:07.243Z,32.58
2017-10-26T11:59:10.679Z,29.40
2017-10-26T12:02:13.347Z,28.05
2017-10-26T12:05:15.274Z,27.48
2017-10-26T12:08:17.207Z,26.90
2017-10-26T12:11:19.135Z,27.10
2017-10-26T12:14:21.855Z,28.58
2017-10-26T12:17:23.804Z,29.85
2017-10-26T12:20:26.538Z,30.42
2017-10-26T12:23:28.891Z,30.90
2017-10-26T12:26:30.798Z,24.48
2017-10-26T12:29:32.771Z,26.62
2017-10-26T12:32:35.465Z,22.70
2017-10-26T12:35:38.556Z,23.98
2017-10-26T12:38:40.494Z,22.50
2017-10-26T12:41:42.553Z,17.45
2017-10-26T12:44:45.217Z,19.17
2017-10-26T12:47:47.299Z,18.05
2017-10-26T12:50:49.232Z,18.52
2017-10-26T12:53:51.586Z,16.23
2017-10-26T12:56:53.516Z,15.20
2017-10-26T12:59:56.661Z,16.70
2017-10-26T13:02:58.584Z,13.27
2017-10-26T13:06:01.281Z,13.00
2017-10-26T13:09:03.944Z,15.38
2017-10-26T13:12:06.981Z,15.20
2017-10-26T13:15:09.706Z,17.35
2017-10-26T13:18:11.662Z,15.20
2017-10-26T13:21:14.336Z,18.90
2017-10-26T13:24:16.571Z,14.80
2017-10-26T13:27:18.478Z,17.20
2017-10-26T13:30:20.788Z,22.05
2017-10-26T13:33:22.801Z,17.98
2017-10-26T13:36:24.776Z,17.48
2017-10-26T13:39:26.696Z,19.33
2017-10-26T13:42:29.142Z,15.85
2017-10-26T13:45:31.167Z,15.73
2017-10-26T13:48:33.640Z,16.73
2017-10-26T13:51:35.569Z,17.73
2017-10-26T13:54:37.910Z,16.05
2017-10-26T13:57:40.005Z,15.80
2017-10-26T14:00:43.042Z,16.02
2017-10-26T14:03:44.942Z,13.93
2017-10-26T14:06:46.939Z,19.33
2017-10-26T14:09:48.846Z,19.62
2017-10-26T14:12:51.145Z,18.85
2017-10-26T14:15:53.915Z,16.02
2017-10-26T14:18:55.903Z,18.05
2017-10-26T14:21:57.825Z,12.32
2017-10-26T14:25:00.082Z,16.42
2017-10-26T14:28:02.079Z,16.67
2017-10-26T14:31:05.084Z,18.10
2017-10-26T14:34:08.673Z,21.20
2017-10-26T14:37:10.993Z,16.95
2017-10-26T14:40:12.957Z,16.25
2017-10-26T14:43:15.227Z,18.20
2017-10-26T14:46:17.123Z,17.83
2017-10-26T14:49:19.422Z,18.90
2017-10-26T14:52:21.431Z,18.12
2017-10-26T14:55:24.149Z,12.27
2017-10-26T14:58:26.085Z,21.40
2017-10-26T15:01:28.063Z,17.15
2017-10-26T15:04:30.008Z,18.65
2017-10-26T15:07:32.033Z,13.32
2017-10-26T15:10:33.939Z,17.33
2017-10-26T15:13:35.894Z,17.05
2017-10-26T15:16:37.830Z,15.93
2017-10-26T15:19:40.122Z,17.10
2017-10-26T15:22:42.019Z,20.37
2017-10-26T15:25:44.083Z,23.85
2017-10-26T15:28:46.038Z,15.13
2017-10-26T15:31:48.301Z,15.15
2017-10-26T15:34:50.225Z,22.92
2017-10-26T15:37:53.330Z,17.33
2017-10-26T15:40:56.126Z,16.95
2017-10-26T15:43:59.224Z,15.80
2017-10-26T15:47:01.191Z,18.77
2017-10-26T15:50:03.286Z,23.23
2017-10-26T15:53:05.309Z,18.30
2017-10-26T15:56:08.228Z,21.95
2017-10-26T15:59:10.146Z,17.83
2017-10-26T16:02:12.379Z,23.52
2017-10-26T16:05:15.142Z,17.30
2017-10-26T16:08:17.531Z,18.62
2017-10-26T16:11:19.653Z,23.50
2017-10-26T16:14:22.473Z,20.23
2017-10-26T16:17:24.418Z,22.90
2017-10-26T16:20:26.710Z,22.23
2017-10-26T16:23:29.510Z,18.02
2017-10-26T16:26:31.477Z,21.30
2017-10-26T16:29:33.411Z,19.98
2017-10-26T16:32:35.462Z,20.10
2017-10-26T16:35:37.436Z,22.02
2017-10-26T16:38:39.741Z,15.98
2017-10-26T16:41:42.578Z,15.40
2017-10-26T16:44:44.929Z,17.67
2017-10-26T16:47:47.637Z,19.05
2017-10-26T16:50:49.587Z,22.70
2017-10-26T16:53:51.575Z,18.33
2017-10-26T16:56:53.868Z,18.35
2017-10-26T16:59:55.786Z,16.95
2017-10-26T17:02:58.869Z,20.17
2017-10-26T17:06:01.653Z,10.38
2017-10-26T17:09:03.899Z,13.85
2017-10-26T17:12:05.833Z,15.43
2017-10-26T17:15:08.124Z,17.70
2017-10-26T17:18:10.131Z,19.83
2017-10-26T17:21:12.397Z,13.73
2017-10-26T17:24:14.318Z,22.45
2017-10-26T17:27:17.307Z,16.40
2017-10-26T17:30:20.005Z,16.77
2017-10-26T17:33:22.731Z,11.33
2017-10-26T17:36:24.770Z,12.68
2017-10-26T17:39:26.817Z,14.03
2017-10-26T17:42:28.731Z,10.27
2017-10-26T17:45:31.045Z,10.13
2017-10-26T17:48:32.950Z,11.13
2017-10-26T17:51:37.697Z,15.63
2017-10-26T17:54:40.396Z,11.07
2017-10-26T17:57:43.199Z,18.08
2017-10-26T18:00:45.881Z,14.20
2017-10-26T18:03:47.908Z,36.35
2017-10-26T18:06:49.868Z,15.40
2017-10-26T18:09:52.108Z,58.72
2017-10-26T18:12:54.132Z,19.27
2017-10-26T18:15:57.227Z,25.30
2017-10-26T18:18:59.153Z,16.10
2017-10-26T18:22:01.125Z,19.83
2017-10-26T18:25:03.134Z,19.62
2017-10-26T18:28:05.134Z,14.13
2017-10-26T18:31:07.062Z,16.67
2017-10-26T18:34:09.861Z,19.27
2017-10-26T18:37:11.888Z,14.43
2017-10-26T18:40:13.941Z,21.73
2017-10-26T18:43:16.634Z,18.07
2017-10-26T18:46:18.635Z,15.93
2017-10-26T18:49:20.537Z,19.98
2017-10-26T18:52:22.521Z,17.98
2017-10-26T18:55:24.435Z,23.43
2017-10-26T18:58:26.412Z,14.10
2017-10-26T19:01:28.739Z,11.63
2017-10-26T19:04:31.845Z,13.03
2017-10-26T19:07:33.790Z,16.65
2017-10-26T19:10:35.928Z,13.33
2017-10-26T19:13:39.159Z,17.73
2017-10-26T19:16:41.435Z,12.67
2017-10-26T19:19:43.375Z,9.33
2017-10-26T19:22:45.314Z,12.47
2017-10-26T19:25:47.254Z,24.27
2017-10-26T19:28:49.201Z,13.57
2017-10-26T19:31:51.103Z,12.57
2017-10-26T19:34:53.121Z,14.07
2017-10-26T19:37:55.805Z,16.93
2017-10-26T19:40:58.082Z,9.97
2017-10-26T19:44:03.727Z,13.90
2017-10-26T19:47:06.051Z,15.23
2017-10-26T19:50:08.041Z,12.77
2017-10-26T19:53:10.327Z,12.87
2017-10-26T19:56:12.301Z,10.07
2017-10-26T19:59:14.274Z,11.33
2017-10-26T20:02:16.303Z,13.03
2017-10-26T20:05:19.413Z,15.07
2017-10-26T20:08:22.080Z,13.73
2017-10-26T20:11:24.403Z,11.93
2017-10-26T20:14:27.202Z,7.97
2017-10-26T20:17:29.461Z,11.00
2017-10-26T20:20:31.486Z,7.63
2017-10-26T20:23:34.562Z,7.33
2017-10-26T20:26:36.490Z,10.17
2017-10-26T20:29:39.206Z,7.67
2017-10-26T20:32:41.180Z,10.23
2017-10-26T20:35:43.539Z,8.17
2017-10-26T20:38:45.498Z,6.63
2017-10-26T20:41:47.589Z,7.27
2017-10-26T20:44:49.526Z,12.80
2017-10-26T20:47:51.568Z,12.07
2017-10-26T20:50:53.473Z,13.50
2017-10-26T20:53:56.548Z,13.18
2017-10-26T20:56:58.528Z,11.13
2017-10-26T21:00:00.564Z,8.10
2017-10-26T21:03:02.517Z,8.50
2017-10-26T21:06:04.443Z,14.20
2017-10-26T21:09:06.371Z,15.97
2017-10-26T21:12:08.313Z,10.73
2017-10-26T21:15:10.225Z,9.57
2017-10-26T21:18:12.233Z,11.70
2017-10-26T21:21:14.897Z,11.93
2017-10-26T21:24:16.815Z,9.47
2017-10-26T21:27:18.798Z,8.17
2017-10-26T21:30:21.562Z,12.57
2017-10-26T21:33:23.469Z,10.07
2017-10-26T21:36:25.449Z,11.80
2017-10-26T21:39:27.371Z,10.10
2017-10-26T21:42:29.351Z,6.57
2017-10-26T21:45:31.297Z,10.27
2017-10-26T21:48:34.753Z,13.50
2017-10-26T21:51:36.872Z,12.00
2017-10-26T21:54:39.273Z,9.33
2017-10-26T21:57:41.265Z,12.17
2017-10-26T22:00:43.196Z,8.47
2017-10-26T22:03:45.261Z,9.60
2017-10-26T22:06:47.974Z,17.97
2017-10-26T22:09:50.634Z,11.27
2017-10-26T22:12:53.031Z,11.80
2017-10-26T22:15:55.007Z,13.43
2017-10-26T22:18:56.986Z,11.33
2017-10-26T22:21:58.970Z,14.37
2017-10-26T22:25:01.266Z,16.43
2017-10-26T22:28:03.243Z,14.20
2017-10-26T22:31:05.156Z,13.00
2017-10-26T22:34:07.936Z,13.60
2017-10-26T22:37:10.246Z,7.70
2017-10-26T22:40:12.137Z,12.50
2017-10-26T22:43:14.509Z,11.47
2017-10-26T22:46:16.497Z,12.10
2017-10-26T22:49:18.778Z,16.97
2017-10-26T22:52:20.689Z,15.50
2017-10-26T22:55:23.477Z,13.00
2017-10-26T22:58:25.399Z,12.97
2017-10-26T23:01:27.349Z,15.33
2017-10-26T23:04:30.226Z,14.77
2017-10-26T23:07:32.493Z,16.93
2017-10-26T23:10:34.488Z,16.13
2017-10-26T23:13:37.014Z,18.90
2017-10-26T23:16:39.761Z,15.73
2017-10-26T23:19:41.796Z,17.37
2017-10-26T23:22:44.487Z,13.73
2017-10-26T23:25:47.661Z,17.97
2017-10-26T23:28:49.687Z,18.77
2017-10-26T23:31:52.341Z,25.40
2017-10-26T23:34:54.373Z,13.57
2017-10-26T23:37:56.300Z,17.90
2017-10-26T23:40:58.215Z,20.57
2017-10-26T23:44:00.207Z,16.03
2017-10-26T23:47:02.134Z,13.30
2017-10-26T23:50:04.175Z,17.63
2017-10-26T23:53:06.145Z,16.50
2017-10-26T23:56:08.124Z,22.13
2017-10-26T23:59:10.106Z,18.47
